| time (UTC) | temp F | wind direction | speed MPH | gust MPH | rain 1hr in | rain 24hr in | rain mn in | humidity % | barometer mb |
| 20260502195259 | 72 | 354 | 1.0 | 3.0 | 0.00 | 0.00 | 0.00 | 18 | 1016.3 |
| 20260502194755 | 71 | 264 | 1.0 | 6.0 | 0.00 | 0.00 | 0.00 | 17 | 1016.6 |
| 20260502194253 | 72 | 306 | 2.0 | 3.0 | 0.00 | 0.00 | 0.00 | 17 | 1016.7 |
| 20260502193748 | 72 | 333 | 3.0 | 6.0 | 0.00 | 0.00 | 0.00 | 17 | 1016.6 |
| 20260502193246 | 71 | 93 | 1.0 | 3.0 | 0.00 | 0.00 | 0.00 | 19 | 1016.7 |
| 20260502192746 | 71 | 345 | 4.0 | 7.0 | 0.00 | 0.00 | 0.00 | 19 | 1016.8 |
| 20260502192244 | 72 | 23 | 5.0 | 7.0 | 0.00 | 0.00 | 0.00 | 17 | 1016.8 |
| 20260502191740 | 73 | 75 | 1.0 | 3.0 | 0.00 | 0.00 | 0.00 | 18 | 1016.8 |
| 20260502191238 | 72 | 19 | 4.0 | 4.0 | 0.00 | 0.00 | 0.00 | 19 | 1016.9 |
| 20260502190735 | 72 | 327 | 6.0 | 7.0 | 0.00 | 0.00 | 0.00 | 19 | 1016.8 |
| 20260502190233 | 71 | 274 | 3.0 | 6.0 | 0.00 | 0.00 | 0.00 | 20 | 1017.1 |
| 20260502185733 | 71 | 26 | 3.0 | 6.0 | 0.00 | 0.00 | 0.00 | 19 | 1017.1 |
| 20260502185229 | 71 | 301 | 2.0 | 4.0 | 0.00 | 0.00 | 0.00 | 20 | 1017.2 |
| 20260502184726 | 71 | 353 | 2.0 | 4.0 | 0.00 | 0.00 | 0.00 | 19 | 1017.1 |
| 20260502184221 | 70 | 101 | 2.0 | 3.0 | 0.00 | 0.00 | 0.00 | 20 | 1017.2 |
| 20260502183719 | 70 | 310 | 1.0 | 6.0 | 0.00 | 0.00 | 0.00 | 21 | 1017.4 |
| 20260502183214 | 69 | 281 | 4.0 | 6.0 | 0.00 | 0.00 | 0.00 | 22 | 1017.5 |
| 20260502182710 | 70 | 287 | 4.0 | 8.0 | 0.00 | 0.00 | 0.00 | 23 | 1017.5 |
| 20260502182205 | 69 | 316 | 2.0 | 3.0 | 0.00 | 0.00 | 0.00 | 23 | 1017.5 |
| 20260502181703 | 68 | 289 | 2.0 | 3.0 | 0.00 | 0.00 | 0.00 | 21 | 1017.6 |
| 20260502181202 | 69 | 301 | 2.0 | 8.0 | 0.00 | 0.00 | 0.00 | 20 | 1017.7 |
| 20260502180659 | 67 | 280 | 1.0 | 3.0 | 0.00 | 0.00 | 0.00 | 23 | 1017.7 |
| 20260502180156 | 68 | 323 | 2.0 | 6.0 | 0.00 | 0.00 | 0.00 | 22 | 1017.7 |
| 20260502170120 | 62 | 322 | 4.0 | 4.0 | 0.00 | 0.00 | 0.00 | 32 | 1018.3 |
| 20260502164107 | 63 | 261 | 2.0 | 4.0 | 0.00 | 0.00 | 0.00 | 30 | 1018.3 |
| 20260502163603 | 63 | 332 | 2.0 | 3.0 | 0.00 | 0.00 | 0.00 | 30 | 1018.3 |
| 20260502163059 | 61 | 343 | 1.0 | 4.0 | 0.00 | 0.00 | 0.00 | 33 | 1018.4 |
| 20260502162556 | 61 | 346 | 1.0 | 1.0 | 0.00 | 0.00 | 0.00 | 33 | 1018.5 |
| 20260502162053 | 61 | 329 | 3.0 | 4.0 | 0.00 | 0.00 | 0.00 | 32 | 1018.6 |
| 20260502161550 | 60 | 307 | 3.0 | 3.0 | 0.00 | 0.00 | 0.00 | 33 | 1018.4 |
| 20260502161048 | 61 | 8 | 4.0 | 4.0 | 0.00 | 0.00 | 0.00 | 32 | 1018.5 |
| 20260502160546 | 60 | 347 | 1.0 | 3.0 | 0.00 | 0.00 | 0.00 | 32 | 1018.5 |
| 20260502151953 | 58 | 267 | 0.0 | 1.0 | 0.00 | 0.00 | 0.00 | 32 | 1018.7 |
| 20260502151449 | 57 | 220 | 0.0 | 1.0 | 0.00 | 0.00 | 0.00 | 32 | 1018.9 |
| 20260502150947 | 56 | 240 | 0.0 | 1.0 | 0.00 | 0.00 | 0.00 | 35 | 1018.9 |
| 20260502150444 | 55 | 200 | 1.0 | 1.0 | 0.00 | 0.00 | 0.00 | 34 | 1019.2 |
| 20260502130329 | 38 | 140 | 0.0 | 0.0 | 0.00 | 0.00 | 0.00 | 59 | 1018.8 |
| 20260502123814 | 36 | 137 | 0.0 | 0.0 | 0.00 | 0.00 | 0.00 | 63 | 1018.8 |
| 20260502123312 | 36 | 137 | 0.0 | 0.0 | 0.00 | 0.00 | 0.00 | 62 | 1018.8 |
| 20260502122808 | 36 | 137 | 0.0 | 0.0 | 0.00 | 0.00 | 0.00 | 62 | 1018.8 |
| 20260502122306 | 36 | 137 | 0.0 | 0.0 | 0.00 | 0.00 | 0.00 | 61 | 1018.6 |
| 20260502121803 | 36 | 137 | 0.0 | 0.0 | 0.00 | 0.00 | 0.00 | 62 | 1018.6 |
| 20260502121300 | 36 | 138 | 0.0 | 0.0 | 0.00 | 0.00 | 0.00 | 62 | 1018.6 |
| 20260502120757 | 35 | 138 | 0.0 | 0.0 | 0.00 | 0.00 | 0.00 | 63 | 1018.5 |
| 20260502120253 | 35 | 138 | 0.0 | 0.0 | 0.00 | 0.00 | 0.00 | 63 | 1018.5 |
| 20260502115751 | 35 | 137 | 0.0 | 0.0 | 0.00 | 0.00 | 0.00 | 64 | 1018.6 |
| 20260502115248 | 36 | 137 | 0.0 | 0.0 | 0.00 | 0.00 | 0.00 | 62 | 1018.5 |
| 20260502114744 | 37 | 137 | 0.0 | 0.0 | 0.00 | 0.00 | 0.00 | 61 | 1018.4 |
| 20260502114241 | 37 | 137 | 0.0 | 0.0 | 0.00 | 0.00 | 0.00 | 60 | 1018.4 |
| 20260502113738 | 37 | 137 | 0.0 | 0.0 | 0.00 | 0.00 | 0.00 | 59 | 1018.6 |
| 20260502113236 | 38 | 138 | 0.0 | 1.0 | 0.00 | 0.00 | 0.00 | 58 | 1018.4 |
| 20260502112734 | 38 | 132 | 0.0 | 1.0 | 0.00 | 0.00 | 0.00 | 58 | 1018.4 |
| 20260502112231 | 37 | 116 | 0.0 | 0.0 | 0.00 | 0.00 | 0.00 | 61 | 1018.5 |
| 20260502111728 | 38 | 135 | 1.0 | 1.0 | 0.00 | 0.00 | 0.00 | 58 | 1018.4 |
| 20260502111226 | 39 | 143 | 0.0 | 0.0 | 0.00 | 0.00 | 0.00 | 56 | 1018.2 |
| 20260502110723 | 39 | 143 | 0.0 | 1.0 | 0.00 | 0.00 | 0.00 | 54 | 1018.2 |
| 20260502110221 | 40 | 140 | 0.0 | 1.0 | 0.00 | 0.00 | 0.00 | 53 | 1018.4 |
| 20260502105718 | 39 | 142 | 1.0 | 1.0 | 0.00 | 0.00 | 0.00 | 53 | 1018.2 |
| 20260502105214 | 39 | 142 | 1.0 | 1.0 | 0.00 | 0.00 | 0.00 | 54 | 1018.4 |
| 20260502104712 | 38 | 106 | 0.0 | 1.0 | 0.00 | 0.00 | 0.00 | 58 | 1018.3 |
| 20260502104210 | 37 | 106 | 1.0 | 1.0 | 0.00 | 0.00 | 0.00 | 59 | 1018.2 |
| 20260502103707 | 36 | 101 | 0.0 | 1.0 | 0.00 | 0.00 | 0.00 | 63 | 1018.4 |
| 20260502103205 | 36 | 99 | 0.0 | 0.0 | 0.00 | 0.00 | 0.00 | 64 | 1018.5 |
| 20260502102701 | 36 | 99 | 0.0 | 0.0 | 0.00 | 0.00 | 0.00 | 65 | 1018.3 |
| 20260502102158 | 36 | 98 | 0.0 | 0.0 | 0.00 | 0.00 | 0.00 | 64 | 1018.3 |
| 20260502101656 | 36 | 98 | 0.0 | 0.0 | 0.00 | 0.00 | 0.00 | 62 | 1018.3 |
| 20260502101154 | 37 | 98 | 0.0 | 0.0 | 0.00 | 0.00 | 0.00 | 62 | 1018.3 |
| 20260502100652 | 38 | 99 | 0.0 | 1.0 | 0.00 | 0.00 | 0.00 | 59 | 1018.2 |
| 20260502100150 | 40 | 99 | 0.0 | 1.0 | 0.00 | 0.00 | 0.00 | 54 | 1018.3 |
| 20260502091124 | 40 | 143 | 0.0 | 1.0 | 0.00 | 0.00 | 0.00 | 53 | 1018.0 |
| 20260502090621 | 40 | 139 | 0.0 | 1.0 | 0.00 | 0.00 | 0.00 | 52 | 1017.8 |
| 20260502090118 | 40 | 138 | 0.0 | 1.0 | 0.00 | 0.00 | 0.00 | 52 | 1018.0 |
| 20260502071516 | 45 | 187 | 0.0 | 0.0 | 0.00 | 0.00 | 0.00 | 43 | 1017.5 |
| 20260502071014 | 46 | 182 | 0.0 | 1.0 | 0.00 | 0.00 | 0.00 | 40 | 1017.5 |
| 20260502070511 | 47 | 152 | 1.0 | 2.0 | 0.00 | 0.00 | 0.00 | 40 | 1017.5 |
| 20260502070010 | 47 | 162 | 0.0 | 1.0 | 0.00 | 0.00 | 0.00 | 40 | 1017.6 |
| 20260502065508 | 47 | 165 | 1.0 | 2.0 | 0.00 | 0.00 | 0.00 | 38 | 1017.6 |
| 20260502065005 | 48 | 162 | 1.0 | 2.0 | 0.00 | 0.00 | 0.00 | 38 | 1017.4 |
| 20260502064503 | 48 | 150 | 1.0 | 6.0 | 0.00 | 0.00 | 0.00 | 37 | 1017.4 |
| 20260502064000 | 48 | 170 | 2.0 | 3.0 | 0.00 | 0.00 | 0.00 | 38 | 1017.4 |
| 20260502063458 | 47 | 145 | 2.0 | 2.0 | 0.00 | 0.00 | 0.00 | 38 | 1017.4 |
| 20260502062955 | 47 | 150 | 2.0 | 6.0 | 0.00 | 0.00 | 0.00 | 38 | 1017.4 |
| 20260502062452 | 46 | 148 | 1.0 | 2.0 | 0.00 | 0.00 | 0.00 | 39 | 1017.4 |
| 20260502061951 | 46 | 149 | 1.0 | 2.0 | 0.00 | 0.00 | 0.00 | 39 | 1017.6 |
| 20260502061449 | 46 | 140 | 1.0 | 2.0 | 0.00 | 0.00 | 0.00 | 39 | 1017.2 |
| 20260502060944 | 45 | 133 | 1.0 | 2.0 | 0.00 | 0.00 | 0.00 | 40 | 1017.1 |
| 20260502060440 | 45 | 147 | 0.0 | 1.0 | 0.00 | 0.00 | 0.00 | 40 | 1017.5 |
| 20260502055937 | 46 | 141 | 0.0 | 0.0 | 0.00 | 0.00 | 0.00 | 39 | 1017.5 |
| 20260502055435 | 46 | 142 | 1.0 | 2.0 | 0.00 | 0.00 | 0.00 | 38 | 1017.5 |
| 20260502054935 | 46 | 108 | 0.0 | 1.0 | 0.00 | 0.00 | 0.00 | 39 | 1017.2 |
| 20260502054432 | 46 | 113 | 0.0 | 1.0 | 0.00 | 0.00 | 0.00 | 40 | 1017.4 |
| 20260502053929 | 46 | 111 | 0.0 | 0.0 | 0.00 | 0.00 | 0.00 | 40 | 1017.4 |
| 20260502053426 | 47 | 106 | 1.0 | 2.0 | 0.00 | 0.00 | 0.00 | 41 | 1017.2 |
| 20260502052924 | 48 | 140 | 1.0 | 2.0 | 0.00 | 0.00 | 0.00 | 39 | 1017.4 |
| 20260502052422 | 49 | 105 | 0.0 | 1.0 | 0.00 | 0.00 | 0.00 | 39 | 1017.2 |
| 20260502051920 | 51 | 85 | 1.0 | 2.0 | 0.00 | 0.00 | 0.00 | 37 | 1017.2 |
| 20260502051418 | 51 | 140 | 2.0 | 3.0 | 0.00 | 0.00 | 0.00 | 35 | 1017.0 |
| 20260502050914 | 51 | 133 | 3.0 | 3.0 | 0.00 | 0.00 | 0.00 | 34 | 1017.4 |
| 20260502050411 | 52 | 159 | 1.0 | 1.0 | 0.00 | 0.00 | 0.00 | 33 | 1017.2 |
| 20260502045908 | 52 | 142 | 2.0 | 3.0 | 0.00 | 0.00 | 0.00 | 33 | 1017.4 |
| 20260502045405 | 52 | 161 | 1.0 | 3.0 | 0.00 | 0.00 | 0.00 | 34 | 1017.2 |
| 20260502044902 | 52 | 176 | 1.0 | 2.0 | 0.00 | 0.00 | 0.00 | 35 | 1017.4 |
| 20260502044357 | 51 | 151 | 2.0 | 2.0 | 0.00 | 0.00 | 0.00 | 36 | 1017.5 |
| 20260502043855 | 51 | 153 | 1.0 | 4.0 | 0.00 | 0.00 | 0.00 | 36 | 1017.2 |
| 20260502043352 | 51 | 164 | 1.0 | 2.0 | 0.00 | 0.00 | 0.00 | 37 | 1017.1 |
| 20260502042852 | 51 | 147 | 2.0 | 2.0 | 0.00 | 0.00 | 0.00 | 38 | 1017.2 |
| 20260502042349 | 51 | 159 | 2.0 | 3.0 | 0.00 | 0.00 | 0.00 | 38 | 1017.2 |
| 20260502041846 | 51 | 144 | 2.0 | 2.0 | 0.00 | 0.00 | 0.00 | 38 | 1017.1 |
| 20260502041344 | 52 | 148 | 0.0 | 2.0 | 0.00 | 0.00 | 0.00 | 38 | 1017.1 |
| 20260502040841 | 52 | 143 | 1.0 | 4.0 | 0.00 | 0.00 | 0.00 | 37 | 1017.1 |
| 20260502040338 | 53 | 145 | 1.0 | 3.0 | 0.00 | 0.00 | 0.00 | 36 | 1016.9 |
| 20260502035834 | 53 | 164 | 0.0 | 2.0 | 0.00 | 0.00 | 0.00 | 36 | 1016.9 |
| 20260502035331 | 53 | 176 | 1.0 | 4.0 | 0.00 | 0.00 | 0.00 | 35 | 1017.4 |
| 20260502034828 | 53 | 165 | 2.0 | 4.0 | 0.00 | 0.00 | 0.00 | 36 | 1017.1 |
| 20260502034326 | 54 | 143 | 1.0 | 3.0 | 0.00 | 0.00 | 0.00 | 34 | 1017.0 |
| 20260502033824 | 54 | 172 | 1.0 | 2.0 | 0.00 | 0.00 | 0.00 | 31 | 1016.9 |
| 20260502033322 | 55 | 149 | 1.0 | 2.0 | 0.00 | 0.00 | 0.00 | 30 | 1016.9 |
| 20260502032818 | 55 | 178 | 4.0 | 6.0 | 0.00 | 0.00 | 0.00 | 28 | 1016.8 |
| 20260502032314 | 56 | 138 | 0.0 | 2.0 | 0.00 | 0.00 | 0.00 | 27 | 1016.8 |
| 20260502031812 | 56 | 101 | 0.0 | 0.0 | 0.00 | 0.00 | 0.00 | 26 | 1017.0 |
| 20260502031310 | 56 | 90 | 0.0 | 0.0 | 0.00 | 0.00 | 0.00 | 25 | 1016.7 |
| 20260502030808 | 57 | 89 | 0.0 | 0.0 | 0.00 | 0.00 | 0.00 | 22 | 1016.8 |
| 20260502030306 | 57 | 89 | 0.0 | 0.0 | 0.00 | 0.00 | 0.00 | 24 | 1016.6 |
| 20260502025803 | 58 | 89 | 0.0 | 0.0 | 0.00 | 0.00 | 0.00 | 22 | 1016.6 |
| 20260502025301 | 58 | 90 | 0.0 | 0.0 | 0.00 | 0.00 | 0.00 | 24 | 1016.6 |
| 20260502024759 | 59 | 90 | 0.0 | 0.0 | 0.00 | 0.00 | 0.00 | 22 | 1016.7 |
| 20260502024256 | 59 | 89 | 0.0 | 0.0 | 0.00 | 0.00 | 0.00 | 22 | 1016.4 |
| 20260502023754 | 60 | 89 | 0.0 | 0.0 | 0.00 | 0.00 | 0.00 | 20 | 1016.3 |
| 20260502023251 | 61 | 89 | 0.0 | 0.0 | 0.00 | 0.00 | 0.00 | 20 | 1016.4 |
| 20260502022749 | 62 | 89 | 0.0 | 0.0 | 0.00 | 0.00 | 0.00 | 20 | 1016.3 |
| 20260502022245 | 63 | 90 | 0.0 | 0.0 | 0.00 | 0.00 | 0.00 | 19 | 1016.3 |
| 20260502021742 | 64 | 90 | 0.0 | 0.0 | 0.00 | 0.00 | 0.00 | 16 | 1016.4 |
| 20260502021240 | 64 | 90 | 0.0 | 0.0 | 0.00 | 0.00 | 0.00 | 16 | 1016.6 |
| 20260502020737 | 65 | 89 | 0.0 | 1.0 | 0.00 | 0.00 | 0.00 | 14 | 1016.6 |
| 20260502020234 | 65 | 100 | 2.0 | 3.0 | 0.00 | 0.00 | 0.00 | 14 | 1016.3 |
| 20260502015732 | 65 | 69 | 2.0 | 3.0 | 0.00 | 0.00 | 0.00 | 14 | 1016.6 |
| 20260502015227 | 66 | 89 | 3.0 | 4.0 | 0.00 | 0.00 | 0.00 | 13 | 1016.7 |
| 20260502014725 | 66 | 108 | 1.0 | 2.0 | 0.00 | 0.00 | 0.00 | 15 | 1016.3 |
| 20260502014222 | 66 | 80 | 3.0 | 4.0 | 0.00 | 0.00 | 0.00 | 14 | 1016.7 |
| 20260502013718 | 66 | 95 | 1.0 | 3.0 | 0.00 | 0.00 | 0.00 | 15 | 1016.6 |
| 20260502013213 | 67 | 80 | 1.0 | 2.0 | 0.00 | 0.00 | 0.00 | 15 | 1016.6 |
| 20260502012711 | 67 | 96 | 3.0 | 4.0 | 0.00 | 0.00 | 0.00 | 15 | 1016.8 |
| 20260502012209 | 67 | 100 | 1.0 | 2.0 | 0.00 | 0.00 | 0.00 | 15 | 1016.7 |
| 20260502011705 | 68 | 98 | 0.0 | 1.0 | 0.00 | 0.00 | 0.00 | 15 | 1016.9 |
| 20260502011201 | 67 | 111 | 0.0 | 1.0 | 0.00 | 0.00 | 0.00 | 15 | 1016.8 |
| 20260502010659 | 67 | 83 | 2.0 | 4.0 | 0.00 | 0.00 | 0.00 | 15 | 1016.9 |
| 20260502010155 | 68 | 79 | 4.0 | 4.0 | 0.00 | 0.00 | 0.00 | 15 | 1016.8 |
| 20260502005653 | 68 | 92 | 2.0 | 3.0 | 0.00 | 0.00 | 0.00 | 16 | 1016.7 |
| 20260502005150 | 68 | 112 | 1.0 | 3.0 | 0.00 | 0.00 | 0.00 | 16 | 1016.8 |
| 20260502004646 | 68 | 79 | 2.0 | 3.0 | 0.00 | 0.00 | 0.00 | 16 | 1016.9 |
| 20260502004143 | 68 | 92 | 4.0 | 6.0 | 0.00 | 0.00 | 0.00 | 16 | 1016.9 |
| 20260502003641 | 68 | 86 | 1.0 | 6.0 | 0.00 | 0.00 | 0.00 | 16 | 1017.0 |
| 20260502003138 | 69 | 122 | 1.0 | 3.0 | 0.00 | 0.00 | 0.00 | 16 | 1016.9 |
| 20260502002633 | 69 | 83 | 0.0 | 4.0 | 0.00 | 0.00 | 0.00 | 16 | 1016.9 |
| 20260502002131 | 70 | 117 | 1.0 | 4.0 | 0.00 | 0.00 | 0.00 | 15 | 1016.9 |
| 20260502001629 | 71 | 96 | 2.0 | 2.0 | 0.00 | 0.00 | 0.00 | 16 | 1017.0 |
| 20260502001126 | 71 | 348 | 2.0 | 4.0 | 0.00 | 0.00 | 0.00 | 15 | 1016.9 |
| 20260502000624 | 71 | 93 | 1.0 | 3.0 | 0.00 | 0.00 | 0.00 | 16 | 1017.0 |
| 20260502000121 | 69 | 0 | 2.0 | 6.0 | 0.00 | 0.00 | 0.00 | 16 | 1016.9 |
| 20260501235617 | 70 | 26 | 0.0 | 3.0 | 0.00 | 0.00 | 0.00 | 16 | 1017.1 |
| 20260501235113 | 70 | 357 | 3.0 | 3.0 | 0.00 | 0.00 | 0.00 | 15 | 1017.2 |
| 20260501234609 | 70 | 118 | 0.0 | 1.0 | 0.00 | 0.00 | 0.00 | 16 | 1017.1 |
| 20260501234106 | 70 | 40 | 1.0 | 4.0 | 0.00 | 0.00 | 0.00 | 17 | 1017.1 |
| 20260501233605 | 71 | 199 | 2.0 | 4.0 | 0.00 | 0.00 | 0.00 | 16 | 1017.4 |
| 20260501233102 | 71 | 216 | 3.0 | 3.0 | 0.00 | 0.00 | 0.00 | 16 | 1017.0 |
| 20260501232557 | 71 | 133 | 0.0 | 3.0 | 0.00 | 0.00 | 0.00 | 15 | 1017.4 |
| 20260501232055 | 70 | 140 | 0.0 | 2.0 | 0.00 | 0.00 | 0.00 | 16 | 1017.2 |
| 20260501231552 | 70 | 132 | 2.0 | 2.0 | 0.00 | 0.00 | 0.00 | 17 | 1017.6 |
| 20260501231051 | 70 | 77 | 2.0 | 4.0 | 0.00 | 0.00 | 0.00 | 16 | 1017.4 |
| 20260501230549 | 70 | 78 | 3.0 | 4.0 | 0.00 | 0.00 | 0.00 | 16 | 1017.4 |
| 20260501230047 | 69 | 300 | 4.0 | 4.0 | 0.00 | 0.00 | 0.00 | 16 | 1017.2 |
| 20260501225544 | 69 | 168 | 2.0 | 3.0 | 0.00 | 0.00 | 0.00 | 17 | 1017.6 |
| 20260501225040 | 69 | 142 | 3.0 | 3.0 | 0.00 | 0.00 | 0.00 | 16 | 1017.8 |
| 20260501224538 | 70 | 193 | 1.0 | 4.0 | 0.00 | 0.00 | 0.00 | 17 | 1017.7 |
| 20260501224034 | 70 | 95 | 2.0 | 3.0 | 0.00 | 0.00 | 0.00 | 17 | 1017.8 |
| 20260501223531 | 71 | 96 | 1.0 | 6.0 | 0.00 | 0.00 | 0.00 | 17 | 1017.7 |
| 20260501223027 | 71 | 284 | 1.0 | 3.0 | 0.00 | 0.00 | 0.00 | 16 | 1017.6 |
| 20260501222524 | 70 | 214 | 2.0 | 3.0 | 0.00 | 0.00 | 0.00 | 17 | 1018.0 |
| 20260501222020 | 70 | 21 | 0.0 | 3.0 | 0.00 | 0.00 | 0.00 | 17 | 1018.0 |
| 20260501221517 | 70 | 78 | 2.0 | 8.0 | 0.00 | 0.00 | 0.00 | 17 | 1017.9 |
| 20260501221015 | 71 | 93 | 3.0 | 6.0 | 0.00 | 0.00 | 0.00 | 17 | 1017.9 |
| 20260501220512 | 72 | 31 | 0.0 | 2.0 | 0.00 | 0.00 | 0.00 | 16 | 1018.2 |
| 20260501220009 | 72 | 335 | 3.0 | 4.0 | 0.00 | 0.00 | 0.00 | 16 | 1018.2 |
| 20260501215505 | 72 | 273 | 1.0 | 1.0 | 0.00 | 0.00 | 0.00 | 15 | 1018.2 |
| 20260501215001 | 71 | 326 | 2.0 | 3.0 | 0.00 | 0.00 | 0.00 | 15 | 1018.4 |
| 20260501214456 | 71 | 289 | 2.0 | 4.0 | 0.00 | 0.00 | 0.00 | 17 | 1018.2 |
| 20260501213952 | 72 | 304 | 3.0 | 3.0 | 0.00 | 0.00 | 0.00 | 16 | 1018.6 |
| 20260501213449 | 71 | 78 | 2.0 | 2.0 | 0.00 | 0.00 | 0.00 | 16 | 1018.6 |
| 20260501212944 | 70 | 298 | 1.0 | 3.0 | 0.00 | 0.00 | 0.00 | 17 | 1018.6 |
| 20260501212441 | 70 | 91 | 1.0 | 4.0 | 0.00 | 0.00 | 0.00 | 17 | 1018.7 |
| 20260501211938 | 70 | 0 | 3.0 | 6.0 | 0.00 | 0.00 | 0.00 | 18 | 1018.7 |
| 20260501211436 | 69 | 73 | 3.0 | 4.0 | 0.00 | 0.00 | 0.00 | 19 | 1018.5 |
| 20260501210933 | 68 | 82 | 2.0 | 3.0 | 0.00 | 0.00 | 0.00 | 19 | 1018.7 |
| 20260501210429 | 69 | 140 | 2.0 | 4.0 | 0.00 | 0.00 | 0.00 | 17 | 1018.6 |
| 20260501205926 | 68 | 161 | 3.0 | 4.0 | 0.00 | 0.00 | 0.00 | 17 | 1018.7 |
| 20260501205423 | 69 | 118 | 1.0 | 8.0 | 0.00 | 0.00 | 0.00 | 17 | 1018.8 |
| 20260501204920 | 69 | 71 | 2.0 | 4.0 | 0.00 | 0.00 | 0.00 | 17 | 1018.9 |
| 20260501204416 | 69 | 6 | 0.0 | 3.0 | 0.00 | 0.00 | 0.00 | 17 | 1018.9 |
| 20260501203912 | 68 | 338 | 2.0 | 4.0 | 0.00 | 0.00 | 0.00 | 18 | 1019.2 |
| 20260501203410 | 68 | 355 | 1.0 | 4.0 | 0.00 | 0.00 | 0.00 | 18 | 1019.1 |
| 20260501202907 | 69 | 119 | 1.0 | 6.0 | 0.00 | 0.00 | 0.00 | 19 | 1019.1 |
| 20260501202404 | 69 | 346 | 1.0 | 6.0 | 0.00 | 0.00 | 0.00 | 19 | 1019.1 |
| 20260501201900 | 68 | 80 | 3.0 | 4.0 | 0.00 | 0.00 | 0.00 | 20 | 1019.3 |
| 20260501201357 | 70 | 93 | 4.0 | 6.0 | 0.00 | 0.00 | 0.00 | 18 | 1018.9 |
| 20260501200854 | 68 | 39 | 1.0 | 3.0 | 0.00 | 0.00 | 0.00 | 19 | 1019.1 |
| 20260501200351 | 69 | 329 | 2.0 | 7.0 | 0.00 | 0.00 | 0.00 | 18 | 1019.3 |
| 20260501195849 | 69 | 4 | 3.0 | 4.0 | 0.00 | 0.00 | 0.00 | 19 | 1019.6 |